Data Viewer
| City | State | Eastern Time | Source | Temp | DewPt | RH | BP | 5 Min Precip | Wind Speed | Wind Dir | 5 Min Wind Max | 5 Min Wind Max Dir |
|---|---|---|---|---|---|---|---|---|---|---|---|---|
| New York LGA | NY | 2026-05-09 06:10 | ASOS | 55 | 46 | 72 | 29.89 | 6 | ENE | |||
| New York LGA | NY | 2026-05-10 04:49 | ASOS | 52 | 52 | 100 | 29.89 | 5 | NNE | |||
| New York LGA | NY | 2026-05-10 03:45 | ASOS | 52 | 52 | 100 | 29.86 | 7 | ENE | |||
| New York LGA | NY | 2026-05-10 03:50 | ASOS | 52 | 52 | 100 | 29.86 | 7 | ENE | |||
| New York LGA | NY | 2026-05-10 03:51 | ASOS | 51 | 51 | 100 | 29.87 | 7 | NE | |||
| New York LGA | NY | 2026-05-10 03:55 | ASOS | 52 | 52 | 100 | 29.87 | 7 | ENE | |||
| New York LGA | NY | 2026-05-10 04:00 | ASOS | 52 | 52 | 100 | 29.87 | 5 | ENE | |||
| New York LGA | NY | 2026-05-10 04:05 | ASOS | 52 | 52 | 100 | 29.87 | 5 | E | |||
| New York LGA | NY | 2026-05-10 04:10 | ASOS | 52 | 52 | 100 | 29.87 | 3 | ENE | |||
| New York LGA | NY | 2026-05-10 04:15 | ASOS | 52 | 52 | 100 | 29.87 | 3 | ENE | |||
| New York LGA | NY | 2026-05-10 04:20 | ASOS | 52 | 52 | 100 | 29.87 | 5 | ENE | |||
| New York LGA | NY | 2026-05-10 04:25 | ASOS | 52 | 52 | 100 | 29.87 | 6 | E | |||
| New York LGA | NY | 2026-05-10 04:30 | ASOS | 52 | 52 | 100 | 29.88 | 6 | NNE | |||
| New York LGA | NY | 2026-05-10 04:35 | ASOS | 52 | 52 | 100 | 29.89 | 7 | N | |||
| New York LGA | NY | 2026-05-10 04:40 | ASOS | 52 | 52 | 100 | 29.89 | 5 | NNE | |||
| New York LGA | NY | 2026-05-10 04:45 | ASOS | 52 | 52 | 100 | 29.89 | 6 | N | |||
| New York LGA | NY | 2026-05-10 04:50 | ASOS | 52 | 52 | 100 | 29.89 | 6 | NNE | |||
| New York LGA | NY | 2026-05-10 03:35 | ASOS | 52 | 52 | 100 | 29.86 | 6 | ENE | |||
| New York LGA | NY | 2026-05-10 05:30 | ASOS | 52 | 52 | 100 | 29.89 | 8 | NE | |||
| New York LGA | NY | 2026-05-10 05:51 | ASOS | 52 | 51 | 97 | 29.88 | 8 | ENE | |||
| New York LGA | NY | 2026-05-10 05:50 | ASOS | 52 | 52 | 100 | 29.88 | 8 | ENE | |||
| New York LGA | NY | 2026-05-10 05:45 | ASOS | 52 | 52 | 100 | 29.89 | 8 | ENE | |||
| New York LGA | NY | 2026-05-10 05:44 | ASOS | 52 | 51 | 97 | 29.89 | 9 | ENE | |||
| New York LGA | NY | 2026-05-10 05:40 | ASOS | 52 | 52 | 100 | 29.89 | 8 | ENE | |||
| New York LGA | NY | 2026-05-10 05:35 | ASOS | 52 | 52 | 100 | 29.89 | 8 | NE | |||
| New York LGA | NY | 2026-05-10 05:25 | ASOS | 52 | 52 | 100 | 29.89 | 8 | NE | |||
| New York LGA | NY | 2026-05-10 04:51 | ASOS | 52 | 51 | 97 | 29.89 | 6 | NNE | |||
| New York LGA | NY | 2026-05-10 05:20 | ASOS | 52 | 52 | 100 | 29.90 | 7 | NE | |||
| New York LGA | NY | 2026-05-10 05:15 | ASOS | 52 | 52 | 100 | 29.89 | 8 | ENE | |||
| New York LGA | NY | 2026-05-10 05:10 | ASOS | 52 | 52 | 100 | 29.89 | 7 | NE | |||
| New York LGA | NY | 2026-05-10 05:05 | ASOS | 52 | 52 | 100 | 29.89 | 8 | NE | |||
| New York LGA | NY | 2026-05-10 05:00 | ASOS | 52 | 52 | 100 | 29.89 | 6 | NE | |||
| New York LGA | NY | 2026-05-10 04:55 | ASOS | 52 | 52 | 100 | 29.89 | 6 | NNE | |||
| New York LGA | NY | 2026-05-10 03:40 | ASOS | 52 | 52 | 100 | 29.86 | 7 | ENE | |||
| New York LGA | NY | 2026-05-10 03:30 | ASOS | 52 | 52 | 100 | 29.86 | 5 | ENE | |||
| New York LGA | NY | 2026-05-09 06:15 | ASOS | 55 | 46 | 72 | 29.89 | 6 | E | |||
| New York LGA | NY | 2026-05-09 08:15 | ASOS | 55 | 48 | 77 | 29.89 | 5 | NE | |||
| New York LGA | NY | 2026-05-09 22:05 | ASOS | 55 | 54 | 94 | 29.85 | 3 | SSE | |||
| New York LGA | NY | 2026-05-09 17:48 | ASOS | 57 | 54 | 88 | 29.84 | 9 | E | |||
| New York LGA | NY | 2026-05-09 10:51 | ASOS | 64 | 48 | 56 | 29.88 | 9 | SW | |||
| New York LGA | NY | 2026-05-09 09:51 | ASOS | 60 | 48 | 64 | 29.88 | |||||
| New York LGA | NY | 2026-05-09 09:05 | ASOS | 59 | 46 | 63 | 29.89 | 8 | S | |||
| New York LGA | NY | 2026-05-09 08:25 | ASOS | 55 | 48 | 77 | 29.90 | 6 | NNE | |||
| New York LGA | NY | 2026-05-09 07:51 | ASOS | 55 | 48 | 77 | 29.90 | 6 | ENE | |||
| New York LGA | NY | 2026-05-09 23:49 | ASOS | 54 | 52 | 94 | 29.86 | 5 | SE | |||
| New York LGA | NY | 2026-05-09 07:25 | ASOS | 55 | 48 | 77 | 29.90 | 6 | NE | |||
| New York LGA | NY | 2026-05-09 07:20 | ASOS | 55 | 48 | 77 | 29.90 | 6 | ENE | |||
| New York LGA | NY | 2026-05-09 06:40 | ASOS | 54 | 46 | 77 | 29.89 | 8 | ENE | |||
| New York LGA | NY | 2026-05-09 06:35 | ASOS | 54 | 46 | 77 | 29.89 | 7 | NE | |||
| New York LGA | NY | 2026-05-09 06:25 | ASOS | 54 | 46 | 77 | 29.89 | 6 | NE | |||
| New York LGA | NY | 2026-05-09 06:20 | ASOS | 55 | 46 | 72 | 29.89 | 7 | ENE | |||
| New York LGA | NY | 2026-05-09 22:48 | ASOS | 54 | 54 | 100 | 29.85 | 3 | NE | |||
| New York LGA | NY | 2026-05-10 01:51 | ASOS | 52 | 52 | 100 | 29.85 | 3 | NE | |||
| New York LGA | NY | 2026-05-10 03:25 | ASOS | 52 | 52 | 100 | 29.86 | 3 | NE | |||
| New York LGA | NY | 2026-05-10 02:51 | ASOS | 52 | 52 | 100 | 29.86 | 5 | NNW | |||
| New York LGA | NY | 2026-05-10 03:20 | ASOS | 52 | 52 | 100 | 29.86 | 5 | NE | |||
| New York LGA | NY | 2026-05-10 03:15 | ASOS | 52 | 52 | 100 | 29.87 | 6 | NNE | |||
| New York LGA | NY | 2026-05-10 03:10 | ASOS | 52 | 52 | 100 | 29.87 | 5 | NNE | |||
| New York LGA | NY | 2026-05-10 03:05 | ASOS | 52 | 52 | 100 | 29.87 | 6 | N | |||
| New York LGA | NY | 2026-05-10 03:00 | ASOS | 52 | 52 | 100 | 29.86 | 7 | N | |||
| New York LGA | NY | 2026-05-10 02:55 | ASOS | 52 | 52 | 100 | 29.86 | 6 | N | |||
| New York LGA | NY | 2026-05-10 02:50 | ASOS | 52 | 52 | 100 | 29.86 | 5 | N | |||
| New York LGA | NY | 2026-05-10 02:15 | ASOS | 52 | 52 | 100 | 29.85 | 5 | ESE | |||
| New York LGA | NY | 2026-05-10 02:45 | ASOS | 52 | 52 | 100 | 29.86 | 5 | N | |||
| New York LGA | NY | 2026-05-10 02:40 | ASOS | 52 | 52 | 100 | 29.86 | 3 | NNE | |||
| New York LGA | NY | 2026-05-10 02:35 | ASOS | 52 | 52 | 100 | 29.86 | 3 | NNE | |||
| New York LGA | NY | 2026-05-10 02:30 | ASOS | 52 | 52 | 100 | 29.85 | 5 | NE | |||
| New York LGA | NY | 2026-05-10 02:25 | ASOS | 52 | 52 | 100 | 29.85 | 3 | ENE | |||
| New York LGA | NY | 2026-05-10 02:20 | ASOS | 52 | 52 | 100 | 29.85 | 0 | N | |||
| New York LGA | NY | 2026-05-10 05:55 | ASOS | 52 | 52 | 100 | 29.88 | 8 | ENE |
data collection created in 0.010789155960083 (queried in 0.002409) rendered in: 9.5844268798828E-5

